sensor_id;sensor_type;location;lat;lon;timestamp;temperature;humidity
16485;DHT22;8353;47.856;12.344;2023-01-29T00:00:42;3.70;99.90
16485;DHT22;8353;47.856;12.344;2023-01-29T00:03:15;3.70;99.90
16485;DHT22;8353;47.856;12.344;2023-01-29T00:05:45;3.60;99.90
16485;DHT22;8353;47.856;12.344;2023-01-29T00:08:17;3.60;99.90
16485;DHT22;8353;47.856;12.344;2023-01-29T00:10:47;3.60;99.90
16485;DHT22;8353;47.856;12.344;2023-01-29T00:13:17;3.60;99.90
16485;DHT22;8353;47.856;12.344;2023-01-29T00:15:52;3.50;99.90
16485;DHT22;8353;47.856;12.344;2023-01-29T00:18:25;3.50;99.90
16485;DHT22;8353;47.856;12.344;2023-01-29T00:20:56;3.50;99.90
16485;DHT22;8353;47.856;12.344;2023-01-29T00:23:27;3.50;99.90
16485;DHT22;8353;47.856;12.344;2023-01-29T00:25:58;3.50;99.90
16485;DHT22;8353;47.856;12.344;2023-01-29T00:28:28;3.40;99.90
16485;DHT22;8353;47.856;12.344;2023-01-29T00:31:05;3.40;99.90
16485;DHT22;8353;47.856;12.344;2023-01-29T00:33:38;3.50;99.90
16485;DHT22;8353;47.856;12.344;2023-01-29T00:36:10;3.40;99.90
16485;DHT22;8353;47.856;12.344;2023-01-29T00:38:41;3.40;99.90
16485;DHT22;8353;47.856;12.344;2023-01-29T00:41:13;3.40;99.90
16485;DHT22;8353;47.856;12.344;2023-01-29T00:44:01;3.40;99.90
16485;DHT22;8353;47.856;12.344;2023-01-29T00:46:49;3.40;99.90
16485;DHT22;8353;47.856;12.344;2023-01-29T00:49:20;3.40;99.90
16485;DHT22;8353;47.856;12.344;2023-01-29T00:51:51;3.40;99.90
16485;DHT22;8353;47.856;12.344;2023-01-29T00:54:35;3.50;99.90
16485;DHT22;8353;47.856;12.344;2023-01-29T00:57:06;3.50;99.90
16485;DHT22;8353;47.856;12.344;2023-01-29T00:59:36;3.50;99.90
16485;DHT22;8353;47.856;12.344;2023-01-29T01:02:07;3.40;99.90
16485;DHT22;8353;47.856;12.344;2023-01-29T01:04:57;3.50;99.90
16485;DHT22;8353;47.856;12.344;2023-01-29T01:07:27;3.50;99.90
16485;DHT22;8353;47.856;12.344;2023-01-29T01:09:58;3.50;99.90
16485;DHT22;8353;47.856;12.344;2023-01-29T01:12:46;3.60;99.90
16485;DHT22;8353;47.856;12.344;2023-01-29T01:15:17;3.50;99.90
16485;DHT22;8353;47.856;12.344;2023-01-29T01:17:51;3.60;99.90
16485;DHT22;8353;47.856;12.344;2023-01-29T01:20:23;3.60;99.90
16485;DHT22;8353;47.856;12.344;2023-01-29T01:22:54;3.60;99.90
16485;DHT22;8353;47.856;12.344;2023-01-29T01:25:26;3.60;99.90
16485;DHT22;8353;47.856;12.344;2023-01-29T01:27:58;3.70;99.90
16485;DHT22;8353;47.856;12.344;2023-01-29T01:30:28;3.60;99.90
16485;DHT22;8353;47.856;12.344;2023-01-29T01:32:59;3.70;99.90
16485;DHT22;8353;47.856;12.344;2023-01-29T01:35:31;3.70;99.90
16485;DHT22;8353;47.856;12.344;2023-01-29T01:38:01;3.70;99.90
16485;DHT22;8353;47.856;12.344;2023-01-29T01:40:32;3.70;99.90
16485;DHT22;8353;47.856;12.344;2023-01-29T01:43:05;3.70;99.90
16485;DHT22;8353;47.856;12.344;2023-01-29T01:45:38;3.70;99.90
16485;DHT22;8353;47.856;12.344;2023-01-29T01:48:13;3.70;99.90
16485;DHT22;8353;47.856;12.344;2023-01-29T01:50:49;3.80;99.90
16485;DHT22;8353;47.856;12.344;2023-01-29T01:53:24;3.80;99.90
16485;DHT22;8353;47.856;12.344;2023-01-29T01:55:58;3.80;99.90
16485;DHT22;8353;47.856;12.344;2023-01-29T01:58:32;3.80;99.90
16485;DHT22;8353;47.856;12.344;2023-01-29T02:01:06;3.80;99.90
16485;DHT22;8353;47.856;12.344;2023-01-29T02:03:39;3.80;99.90
16485;DHT22;8353;47.856;12.344;2023-01-29T02:06:30;3.80;99.90
16485;DHT22;8353;47.856;12.344;2023-01-29T02:09:21;3.80;99.90
16485;DHT22;8353;47.856;12.344;2023-01-29T02:12:05;3.80;99.90
16485;DHT22;8353;47.856;12.344;2023-01-29T02:14:37;3.80;99.90
16485;DHT22;8353;47.856;12.344;2023-01-29T02:17:11;3.80;99.90
16485;DHT22;8353;47.856;12.344;2023-01-29T02:19:46;3.90;99.90
16485;DHT22;8353;47.856;12.344;2023-01-29T02:22:45;3.90;99.90
16485;DHT22;8353;47.856;12.344;2023-01-29T02:25:46;3.80;99.90
16485;DHT22;8353;47.856;12.344;2023-01-29T02:28:39;3.90;99.90
16485;DHT22;8353;47.856;12.344;2023-01-29T02:31:18;3.70;99.90
16485;DHT22;8353;47.856;12.344;2023-01-29T02:33:57;3.70;99.90
16485;DHT22;8353;47.856;12.344;2023-01-29T02:36:36;3.80;99.90
16485;DHT22;8353;47.856;12.344;2023-01-29T02:39:14;3.80;99.90
16485;DHT22;8353;47.856;12.344;2023-01-29T02:41:54;3.90;99.90
16485;DHT22;8353;47.856;12.344;2023-01-29T02:44:35;3.90;99.90
16485;DHT22;8353;47.856;12.344;2023-01-29T02:47:12;3.90;99.90
16485;DHT22;8353;47.856;12.344;2023-01-29T02:49:48;3.90;99.90
16485;DHT22;8353;47.856;12.344;2023-01-29T02:52:25;4.00;99.90
16485;DHT22;8353;47.856;12.344;2023-01-29T02:54:58;4.00;99.90
16485;DHT22;8353;47.856;12.344;2023-01-29T02:57:35;4.10;99.90
16485;DHT22;8353;47.856;12.344;2023-01-29T03:00:10;4.10;99.90
16485;DHT22;8353;47.856;12.344;2023-01-29T03:02:46;4.10;99.90
16485;DHT22;8353;47.856;12.344;2023-01-29T03:05:22;4.10;99.90
16485;DHT22;8353;47.856;12.344;2023-01-29T03:07:58;3.80;99.90
16485;DHT22;8353;47.856;12.344;2023-01-29T03:10:34;3.70;99.90
16485;DHT22;8353;47.856;12.344;2023-01-29T03:13:11;3.60;99.90
16485;DHT22;8353;47.856;12.344;2023-01-29T03:15:46;3.70;99.90
16485;DHT22;8353;47.856;12.344;2023-01-29T03:18:22;3.80;99.90
16485;DHT22;8353;47.856;12.344;2023-01-29T03:20:59;3.80;99.90
16485;DHT22;8353;47.856;12.344;2023-01-29T03:23:33;3.90;99.90
16485;DHT22;8353;47.856;12.344;2023-01-29T03:26:22;3.90;99.90
16485;DHT22;8353;47.856;12.344;2023-01-29T03:29:12;3.90;99.90
16485;DHT22;8353;47.856;12.344;2023-01-29T03:32:01;3.90;99.90
16485;DHT22;8353;47.856;12.344;2023-01-29T03:34:39;3.80;99.90
16485;DHT22;8353;47.856;12.344;2023-01-29T03:37:15;3.80;99.90
16485;DHT22;8353;47.856;12.344;2023-01-29T03:39:47;3.90;99.90
16485;DHT22;8353;47.856;12.344;2023-01-29T03:42:24;3.90;99.90
16485;DHT22;8353;47.856;12.344;2023-01-29T03:45:04;3.90;99.90
16485;DHT22;8353;47.856;12.344;2023-01-29T03:47:42;3.90;99.90
16485;DHT22;8353;47.856;12.344;2023-01-29T03:50:26;3.90;99.90
16485;DHT22;8353;47.856;12.344;2023-01-29T03:53:03;3.90;99.90
16485;DHT22;8353;47.856;12.344;2023-01-29T03:55:42;4.00;99.90
16485;DHT22;8353;47.856;12.344;2023-01-29T03:58:19;3.90;99.90
16485;DHT22;8353;47.856;12.344;2023-01-29T04:00:56;3.90;99.90
16485;DHT22;8353;47.856;12.344;2023-01-29T04:03:33;3.90;99.90
16485;DHT22;8353;47.856;12.344;2023-01-29T04:06:07;3.90;99.90
16485;DHT22;8353;47.856;12.344;2023-01-29T04:08:44;3.80;99.90
16485;DHT22;8353;47.856;12.344;2023-01-29T04:11:18;3.80;99.90
16485;DHT22;8353;47.856;12.344;2023-01-29T04:13:50;3.90;99.90
16485;DHT22;8353;47.856;12.344;2023-01-29T04:16:28;3.80;99.90
16485;DHT22;8353;47.856;12.344;2023-01-29T04:19:02;3.80;99.90
16485;DHT22;8353;47.856;12.344;2023-01-29T04:21:34;3.90;99.90
16485;DHT22;8353;47.856;12.344;2023-01-29T04:24:05;3.90;99.90
16485;DHT22;8353;47.856;12.344;2023-01-29T04:26:54;3.90;99.90
16485;DHT22;8353;47.856;12.344;2023-01-29T04:29:36;4.00;99.90
16485;DHT22;8353;47.856;12.344;2023-01-29T04:32:14;4.00;99.90
16485;DHT22;8353;47.856;12.344;2023-01-29T04:35:00;4.10;99.90
16485;DHT22;8353;47.856;12.344;2023-01-29T04:37:40;4.00;99.90
16485;DHT22;8353;47.856;12.344;2023-01-29T04:40:19;4.00;99.90
16485;DHT22;8353;47.856;12.344;2023-01-29T04:43:11;4.00;99.90
16485;DHT22;8353;47.856;12.344;2023-01-29T04:46:10;4.00;99.90
16485;DHT22;8353;47.856;12.344;2023-01-29T04:49:05;4.00;99.90
16485;DHT22;8353;47.856;12.344;2023-01-29T04:51:46;4.20;99.90
16485;DHT22;8353;47.856;12.344;2023-01-29T04:54:25;4.10;99.90
16485;DHT22;8353;47.856;12.344;2023-01-29T04:57:05;4.10;99.90
16485;DHT22;8353;47.856;12.344;2023-01-29T04:59:41;4.00;99.90
16485;DHT22;8353;47.856;12.344;2023-01-29T05:02:12;4.00;99.90
16485;DHT22;8353;47.856;12.344;2023-01-29T05:04:43;4.00;99.90
16485;DHT22;8353;47.856;12.344;2023-01-29T05:07:17;4.10;99.90
16485;DHT22;8353;47.856;12.344;2023-01-29T05:09:49;4.10;99.90
16485;DHT22;8353;47.856;12.344;2023-01-29T05:12:21;3.90;99.90
16485;DHT22;8353;47.856;12.344;2023-01-29T05:14:55;3.90;99.90
16485;DHT22;8353;47.856;12.344;2023-01-29T05:17:29;3.90;99.90
16485;DHT22;8353;47.856;12.344;2023-01-29T05:20:00;4.00;99.90
16485;DHT22;8353;47.856;12.344;2023-01-29T05:22:31;4.00;99.90
16485;DHT22;8353;47.856;12.344;2023-01-29T05:25:17;4.00;99.90
16485;DHT22;8353;47.856;12.344;2023-01-29T05:27:51;4.00;99.90
16485;DHT22;8353;47.856;12.344;2023-01-29T05:30:34;3.90;99.90
16485;DHT22;8353;47.856;12.344;2023-01-29T05:33:11;3.90;99.90
16485;DHT22;8353;47.856;12.344;2023-01-29T05:35:42;3.90;99.90
16485;DHT22;8353;47.856;12.344;2023-01-29T05:38:14;3.90;99.90
16485;DHT22;8353;47.856;12.344;2023-01-29T05:40:45;3.80;99.90
16485;DHT22;8353;47.856;12.344;2023-01-29T05:43:17;3.80;99.90
16485;DHT22;8353;47.856;12.344;2023-01-29T05:45:52;3.80;99.90
16485;DHT22;8353;47.856;12.344;2023-01-29T05:48:23;3.80;99.90
16485;DHT22;8353;47.856;12.344;2023-01-29T05:50:58;3.80;99.90
16485;DHT22;8353;47.856;12.344;2023-01-29T05:53:31;3.80;99.90
16485;DHT22;8353;47.856;12.344;2023-01-29T05:56:03;3.80;99.90
16485;DHT22;8353;47.856;12.344;2023-01-29T05:58:34;3.70;99.90
16485;DHT22;8353;47.856;12.344;2023-01-29T06:01:09;3.70;99.90
16485;DHT22;8353;47.856;12.344;2023-01-29T06:03:39;3.70;99.90
16485;DHT22;8353;47.856;12.344;2023-01-29T06:06:10;3.70;99.90
16485;DHT22;8353;47.856;12.344;2023-01-29T06:08:42;3.70;99.90
16485;DHT22;8353;47.856;12.344;2023-01-29T06:11:13;3.60;99.90
16485;DHT22;8353;47.856;12.344;2023-01-29T06:13:45;3.60;99.90
16485;DHT22;8353;47.856;12.344;2023-01-29T06:16:15;3.50;99.90
16485;DHT22;8353;47.856;12.344;2023-01-29T06:18:46;3.50;99.90
16485;DHT22;8353;47.856;12.344;2023-01-29T06:21:17;3.30;99.90
16485;DHT22;8353;47.856;12.344;2023-01-29T06:23:51;3.30;99.90
16485;DHT22;8353;47.856;12.344;2023-01-29T06:26:21;3.30;99.90
16485;DHT22;8353;47.856;12.344;2023-01-29T06:28:52;3.30;99.90
16485;DHT22;8353;47.856;12.344;2023-01-29T06:31:22;3.40;99.90
16485;DHT22;8353;47.856;12.344;2023-01-29T06:33:53;3.40;99.90
16485;DHT22;8353;47.856;12.344;2023-01-29T06:36:23;3.40;99.90
16485;DHT22;8353;47.856;12.344;2023-01-29T06:38:55;3.50;99.90
16485;DHT22;8353;47.856;12.344;2023-01-29T06:41:26;3.50;99.90
16485;DHT22;8353;47.856;12.344;2023-01-29T06:43:57;3.40;99.90
16485;DHT22;8353;47.856;12.344;2023-01-29T06:46:28;3.50;99.90
16485;DHT22;8353;47.856;12.344;2023-01-29T06:48:59;3.50;99.90
16485;DHT22;8353;47.856;12.344;2023-01-29T06:51:29;3.40;99.90
16485;DHT22;8353;47.856;12.344;2023-01-29T06:54:00;3.40;99.90
16485;DHT22;8353;47.856;12.344;2023-01-29T06:56:31;3.40;99.90
16485;DHT22;8353;47.856;12.344;2023-01-29T06:59:02;3.40;99.90
16485;DHT22;8353;47.856;12.344;2023-01-29T07:01:33;3.30;99.90
16485;DHT22;8353;47.856;12.344;2023-01-29T07:04:03;3.40;99.90
16485;DHT22;8353;47.856;12.344;2023-01-29T07:06:33;3.30;99.90
16485;DHT22;8353;47.856;12.344;2023-01-29T07:09:05;3.40;99.90
16485;DHT22;8353;47.856;12.344;2023-01-29T07:11:36;3.30;99.90
16485;DHT22;8353;47.856;12.344;2023-01-29T07:14:06;3.40;99.90
16485;DHT22;8353;47.856;12.344;2023-01-29T07:16:37;3.30;99.90
16485;DHT22;8353;47.856;12.344;2023-01-29T07:19:07;3.30;99.90
16485;DHT22;8353;47.856;12.344;2023-01-29T07:21:38;3.50;99.90
16485;DHT22;8353;47.856;12.344;2023-01-29T07:24:10;3.50;99.90
16485;DHT22;8353;47.856;12.344;2023-01-29T07:26:40;3.50;99.90
16485;DHT22;8353;47.856;12.344;2023-01-29T07:29:11;3.40;99.90
16485;DHT22;8353;47.856;12.344;2023-01-29T07:31:41;3.40;99.90
16485;DHT22;8353;47.856;12.344;2023-01-29T07:34:12;3.40;99.90
16485;DHT22;8353;47.856;12.344;2023-01-29T07:36:42;3.50;99.90
16485;DHT22;8353;47.856;12.344;2023-01-29T07:39:14;3.60;99.90
16485;DHT22;8353;47.856;12.344;2023-01-29T07:41:44;3.50;99.90
16485;DHT22;8353;47.856;12.344;2023-01-29T07:44:15;3.40;99.90
16485;DHT22;8353;47.856;12.344;2023-01-29T07:46:45;3.60;99.90
16485;DHT22;8353;47.856;12.344;2023-01-29T07:49:15;3.60;99.90
16485;DHT22;8353;47.856;12.344;2023-01-29T07:51:45;3.80;99.90
16485;DHT22;8353;47.856;12.344;2023-01-29T07:54:17;3.90;99.90
16485;DHT22;8353;47.856;12.344;2023-01-29T07:56:48;3.80;99.90
16485;DHT22;8353;47.856;12.344;2023-01-29T07:59:18;3.90;99.90
16485;DHT22;8353;47.856;12.344;2023-01-29T08:01:48;3.90;99.90
16485;DHT22;8353;47.856;12.344;2023-01-29T08:04:19;3.80;99.90
16485;DHT22;8353;47.856;12.344;2023-01-29T08:06:50;3.80;99.90
16485;DHT22;8353;47.856;12.344;2023-01-29T08:09:21;3.70;99.90
16485;DHT22;8353;47.856;12.344;2023-01-29T08:11:53;3.80;99.90
16485;DHT22;8353;47.856;12.344;2023-01-29T08:14:23;3.70;99.90
16485;DHT22;8353;47.856;12.344;2023-01-29T08:16:53;3.80;99.90
16485;DHT22;8353;47.856;12.344;2023-01-29T08:19:23;3.90;99.90
16485;DHT22;8353;47.856;12.344;2023-01-29T08:21:53;3.70;99.90
16485;DHT22;8353;47.856;12.344;2023-01-29T08:24:25;3.70;99.90
16485;DHT22;8353;47.856;12.344;2023-01-29T08:26:55;3.80;99.90
16485;DHT22;8353;47.856;12.344;2023-01-29T08:29:26;3.90;99.90
16485;DHT22;8353;47.856;12.344;2023-01-29T08:31:56;3.90;99.90
16485;DHT22;8353;47.856;12.344;2023-01-29T08:34:27;3.90;99.90
16485;DHT22;8353;47.856;12.344;2023-01-29T08:36:57;3.90;99.90
16485;DHT22;8353;47.856;12.344;2023-01-29T08:39:29;3.80;99.90
16485;DHT22;8353;47.856;12.344;2023-01-29T08:42:01;3.80;99.90
16485;DHT22;8353;47.856;12.344;2023-01-29T08:44:32;3.90;99.90
16485;DHT22;8353;47.856;12.344;2023-01-29T08:47:03;4.00;99.90
16485;DHT22;8353;47.856;12.344;2023-01-29T08:49:33;3.90;99.90
16485;DHT22;8353;47.856;12.344;2023-01-29T08:52:04;3.80;99.90
16485;DHT22;8353;47.856;12.344;2023-01-29T08:54:36;3.80;99.90
16485;DHT22;8353;47.856;12.344;2023-01-29T08:57:06;3.90;99.90
16485;DHT22;8353;47.856;12.344;2023-01-29T08:59:36;3.90;99.90
16485;DHT22;8353;47.856;12.344;2023-01-29T09:02:09;4.00;99.90
16485;DHT22;8353;47.856;12.344;2023-01-29T09:04:40;4.10;99.90
16485;DHT22;8353;47.856;12.344;2023-01-29T09:07:10;4.20;99.90
16485;DHT22;8353;47.856;12.344;2023-01-29T09:09:42;4.20;99.90
16485;DHT22;8353;47.856;12.344;2023-01-29T09:12:13;4.10;99.90
16485;DHT22;8353;47.856;12.344;2023-01-29T09:14:43;4.00;99.90
16485;DHT22;8353;47.856;12.344;2023-01-29T09:17:13;4.20;99.90
16485;DHT22;8353;47.856;12.344;2023-01-29T09:19:44;4.10;99.90
16485;DHT22;8353;47.856;12.344;2023-01-29T09:22:14;4.10;99.90
16485;DHT22;8353;47.856;12.344;2023-01-29T09:24:46;4.30;99.90
16485;DHT22;8353;47.856;12.344;2023-01-29T09:27:16;4.50;99.90
16485;DHT22;8353;47.856;12.344;2023-01-29T09:29:47;4.60;99.90
16485;DHT22;8353;47.856;12.344;2023-01-29T09:32:17;4.40;99.90
16485;DHT22;8353;47.856;12.344;2023-01-29T09:34:48;4.40;99.90
16485;DHT22;8353;47.856;12.344;2023-01-29T09:37:19;4.50;99.90
16485;DHT22;8353;47.856;12.344;2023-01-29T09:39:52;4.50;99.90
16485;DHT22;8353;47.856;12.344;2023-01-29T09:42:24;4.60;99.90
16485;DHT22;8353;47.856;12.344;2023-01-29T09:45:02;4.40;99.90
16485;DHT22;8353;47.856;12.344;2023-01-29T09:47:34;4.30;99.90
16485;DHT22;8353;47.856;12.344;2023-01-29T09:50:07;4.40;99.90
16485;DHT22;8353;47.856;12.344;2023-01-29T09:52:40;4.30;99.90
16485;DHT22;8353;47.856;12.344;2023-01-29T09:55:20;4.30;99.90
16485;DHT22;8353;47.856;12.344;2023-01-29T09:57:53;4.30;99.90
16485;DHT22;8353;47.856;12.344;2023-01-29T10:00:32;4.10;99.90
16485;DHT22;8353;47.856;12.344;2023-01-29T10:03:27;4.20;99.90
16485;DHT22;8353;47.856;12.344;2023-01-29T10:06:24;4.40;99.90
16485;DHT22;8353;47.856;12.344;2023-01-29T10:12:10;4.60;99.90
16485;DHT22;8353;47.856;12.344;2023-01-29T10:14:47;4.70;99.90
16485;DHT22;8353;47.856;12.344;2023-01-29T10:17:34;4.50;99.90
16485;DHT22;8353;47.856;12.344;2023-01-29T10:20:18;4.30;99.90
16485;DHT22;8353;47.856;12.344;2023-01-29T10:23:06;4.60;99.90
16485;DHT22;8353;47.856;12.344;2023-01-29T10:25:44;4.80;99.90
16485;DHT22;8353;47.856;12.344;2023-01-29T10:28:18;4.80;99.90
16485;DHT22;8353;47.856;12.344;2023-01-29T10:30:50;4.90;99.90
16485;DHT22;8353;47.856;12.344;2023-01-29T10:33:27;4.80;99.90
16485;DHT22;8353;47.856;12.344;2023-01-29T10:36:02;4.90;99.90
16485;DHT22;8353;47.856;12.344;2023-01-29T10:38:39;5.00;99.90
16485;DHT22;8353;47.856;12.344;2023-01-29T10:41:22;4.90;99.90
16485;DHT22;8353;47.856;12.344;2023-01-29T10:44:03;4.90;99.90
16485;DHT22;8353;47.856;12.344;2023-01-29T10:46:49;5.10;99.90
16485;DHT22;8353;47.856;12.344;2023-01-29T10:49:33;5.00;99.90
16485;DHT22;8353;47.856;12.344;2023-01-29T10:52:20;5.00;99.90
16485;DHT22;8353;47.856;12.344;2023-01-29T10:55:03;5.10;99.90
16485;DHT22;8353;47.856;12.344;2023-01-29T10:57:51;5.20;99.90
16485;DHT22;8353;47.856;12.344;2023-01-29T11:00:29;5.20;99.90
16485;DHT22;8353;47.856;12.344;2023-01-29T11:03:12;5.20;99.90
16485;DHT22;8353;47.856;12.344;2023-01-29T11:05:48;5.20;99.90
16485;DHT22;8353;47.856;12.344;2023-01-29T11:08:22;5.30;99.90
16485;DHT22;8353;47.856;12.344;2023-01-29T11:11:02;5.30;99.90
16485;DHT22;8353;47.856;12.344;2023-01-29T11:13:39;5.20;99.90
16485;DHT22;8353;47.856;12.344;2023-01-29T11:16:11;5.20;99.90
16485;DHT22;8353;47.856;12.344;2023-01-29T11:18:54;5.40;99.90
16485;DHT22;8353;47.856;12.344;2023-01-29T11:21:27;5.30;99.90
16485;DHT22;8353;47.856;12.344;2023-01-29T11:24:06;5.40;99.90
16485;DHT22;8353;47.856;12.344;2023-01-29T11:26:39;5.40;99.90
16485;DHT22;8353;47.856;12.344;2023-01-29T11:29:33;5.50;99.90
16485;DHT22;8353;47.856;12.344;2023-01-29T11:32:11;5.50;99.90
16485;DHT22;8353;47.856;12.344;2023-01-29T11:34:59;5.40;99.90
16485;DHT22;8353;47.856;12.344;2023-01-29T11:37:36;5.50;99.90
16485;DHT22;8353;47.856;12.344;2023-01-29T11:40:37;5.50;99.90
16485;DHT22;8353;47.856;12.344;2023-01-29T11:43:19;5.60;99.90
16485;DHT22;8353;47.856;12.344;2023-01-29T11:45:52;5.70;99.90
16485;DHT22;8353;47.856;12.344;2023-01-29T11:51:20;5.70;99.90
16485;DHT22;8353;47.856;12.344;2023-01-29T11:53:53;5.50;99.90
16485;DHT22;8353;47.856;12.344;2023-01-29T11:56:27;5.50;99.90
16485;DHT22;8353;47.856;12.344;2023-01-29T11:58:58;5.50;99.90
16485;DHT22;8353;47.856;12.344;2023-01-29T12:01:35;5.60;99.90
16485;DHT22;8353;47.856;12.344;2023-01-29T12:04:17;5.60;99.90
16485;DHT22;8353;47.856;12.344;2023-01-29T12:06:50;5.50;99.90
16485;DHT22;8353;47.856;12.344;2023-01-29T12:09:23;5.50;99.90
16485;DHT22;8353;47.856;12.344;2023-01-29T12:12:16;5.60;99.90
16485;DHT22;8353;47.856;12.344;2023-01-29T12:14:47;5.80;99.90
16485;DHT22;8353;47.856;12.344;2023-01-29T12:17:32;5.90;99.90
16485;DHT22;8353;47.856;12.344;2023-01-29T12:20:11;5.90;99.90
16485;DHT22;8353;47.856;12.344;2023-01-29T12:22:48;5.60;99.90
16485;DHT22;8353;47.856;12.344;2023-01-29T12:25:23;5.90;99.90
16485;DHT22;8353;47.856;12.344;2023-01-29T12:27:59;6.10;99.90
16485;DHT22;8353;47.856;12.344;2023-01-29T12:30:42;6.40;99.90
16485;DHT22;8353;47.856;12.344;2023-01-29T12:33:23;6.30;99.90
16485;DHT22;8353;47.856;12.344;2023-01-29T12:36:01;6.40;99.90
16485;DHT22;8353;47.856;12.344;2023-01-29T12:38:35;6.40;99.90
16485;DHT22;8353;47.856;12.344;2023-01-29T12:41:07;6.50;99.90
16485;DHT22;8353;47.856;12.344;2023-01-29T12:43:43;6.40;99.90
16485;DHT22;8353;47.856;12.344;2023-01-29T12:46:26;6.30;99.90
16485;DHT22;8353;47.856;12.344;2023-01-29T12:49:01;6.20;99.90
16485;DHT22;8353;47.856;12.344;2023-01-29T12:51:36;6.20;99.90
16485;DHT22;8353;47.856;12.344;2023-01-29T12:54:11;6.20;99.90
16485;DHT22;8353;47.856;12.344;2023-01-29T12:56:46;6.20;99.90
16485;DHT22;8353;47.856;12.344;2023-01-29T12:59:21;6.20;99.90
16485;DHT22;8353;47.856;12.344;2023-01-29T13:01:55;6.20;99.90
16485;DHT22;8353;47.856;12.344;2023-01-29T13:04:35;6.30;99.90
16485;DHT22;8353;47.856;12.344;2023-01-29T13:07:12;6.50;99.90
16485;DHT22;8353;47.856;12.344;2023-01-29T13:09:46;6.60;99.90
16485;DHT22;8353;47.856;12.344;2023-01-29T13:12:20;6.60;99.90
16485;DHT22;8353;47.856;12.344;2023-01-29T13:14:53;6.50;99.90
16485;DHT22;8353;47.856;12.344;2023-01-29T13:17:31;6.60;99.90
16485;DHT22;8353;47.856;12.344;2023-01-29T13:20:08;6.60;99.90
16485;DHT22;8353;47.856;12.344;2023-01-29T13:22:43;6.60;99.90
16485;DHT22;8353;47.856;12.344;2023-01-29T13:25:18;6.60;99.90
16485;DHT22;8353;47.856;12.344;2023-01-29T13:27:49;6.50;99.90
16485;DHT22;8353;47.856;12.344;2023-01-29T13:30:25;6.50;99.90
16485;DHT22;8353;47.856;12.344;2023-01-29T13:32:57;6.50;99.90
16485;DHT22;8353;47.856;12.344;2023-01-29T13:35:39;6.60;99.90
16485;DHT22;8353;47.856;12.344;2023-01-29T13:38:22;6.50;99.90
16485;DHT22;8353;47.856;12.344;2023-01-29T13:40:57;6.50;99.90
16485;DHT22;8353;47.856;12.344;2023-01-29T13:43:34;6.50;99.90
16485;DHT22;8353;47.856;12.344;2023-01-29T13:46:08;6.30;99.90
16485;DHT22;8353;47.856;12.344;2023-01-29T13:48:41;6.30;99.90
16485;DHT22;8353;47.856;12.344;2023-01-29T13:51:14;6.40;99.90
16485;DHT22;8353;47.856;12.344;2023-01-29T13:53:55;6.50;99.90
16485;DHT22;8353;47.856;12.344;2023-01-29T13:56:41;6.50;99.90
16485;DHT22;8353;47.856;12.344;2023-01-29T13:59:23;6.50;99.90
16485;DHT22;8353;47.856;12.344;2023-01-29T14:02:01;6.50;99.90
16485;DHT22;8353;47.856;12.344;2023-01-29T14:04:33;6.50;99.90
16485;DHT22;8353;47.856;12.344;2023-01-29T14:07:46;6.50;99.90
16485;DHT22;8353;47.856;12.344;2023-01-29T14:10:21;6.30;99.90
16485;DHT22;8353;47.856;12.344;2023-01-29T14:12:52;6.20;99.90
16485;DHT22;8353;47.856;12.344;2023-01-29T14:15:29;6.10;99.90
16485;DHT22;8353;47.856;12.344;2023-01-29T14:18:24;6.00;99.90
16485;DHT22;8353;47.856;12.344;2023-01-29T14:21:01;6.00;99.90
16485;DHT22;8353;47.856;12.344;2023-01-29T14:23:39;6.10;99.90
16485;DHT22;8353;47.856;12.344;2023-01-29T14:26:27;6.10;99.90
16485;DHT22;8353;47.856;12.344;2023-01-29T14:29:05;6.20;99.90
16485;DHT22;8353;47.856;12.344;2023-01-29T14:31:40;6.10;99.90
16485;DHT22;8353;47.856;12.344;2023-01-29T14:34:19;6.00;99.90
16485;DHT22;8353;47.856;12.344;2023-01-29T14:36:52;5.90;99.90
16485;DHT22;8353;47.856;12.344;2023-01-29T14:39:30;5.90;99.90
16485;DHT22;8353;47.856;12.344;2023-01-29T14:42:13;5.90;99.90
16485;DHT22;8353;47.856;12.344;2023-01-29T14:44:58;5.90;99.90
16485;DHT22;8353;47.856;12.344;2023-01-29T14:47:55;6.00;99.90
16485;DHT22;8353;47.856;12.344;2023-01-29T14:50:47;6.00;99.90
16485;DHT22;8353;47.856;12.344;2023-01-29T14:53:24;5.90;99.90
16485;DHT22;8353;47.856;12.344;2023-01-29T14:56:02;5.70;99.90
16485;DHT22;8353;47.856;12.344;2023-01-29T14:58:41;5.70;99.90
16485;DHT22;8353;47.856;12.344;2023-01-29T15:01:21;5.80;99.90
16485;DHT22;8353;47.856;12.344;2023-01-29T15:03:54;5.90;99.90
16485;DHT22;8353;47.856;12.344;2023-01-29T15:06:32;5.90;99.90
16485;DHT22;8353;47.856;12.344;2023-01-29T15:09:11;5.80;99.90
16485;DHT22;8353;47.856;12.344;2023-01-29T15:11:48;5.80;99.90
16485;DHT22;8353;47.856;12.344;2023-01-29T15:14:31;5.80;99.90
16485;DHT22;8353;47.856;12.344;2023-01-29T15:17:15;5.70;99.90
16485;DHT22;8353;47.856;12.344;2023-01-29T15:19:48;5.80;99.90
16485;DHT22;8353;47.856;12.344;2023-01-29T15:22:19;5.70;99.90
16485;DHT22;8353;47.856;12.344;2023-01-29T15:25:03;5.60;99.90
16485;DHT22;8353;47.856;12.344;2023-01-29T15:27:35;5.60;99.90
16485;DHT22;8353;47.856;12.344;2023-01-29T15:30:15;5.60;99.90
16485;DHT22;8353;47.856;12.344;2023-01-29T15:32:47;5.60;99.90
16485;DHT22;8353;47.856;12.344;2023-01-29T15:35:26;5.60;99.90
16485;DHT22;8353;47.856;12.344;2023-01-29T15:37:58;5.60;99.90
16485;DHT22;8353;47.856;12.344;2023-01-29T15:40:29;5.60;99.90
16485;DHT22;8353;47.856;12.344;2023-01-29T15:43:00;5.60;99.90
16485;DHT22;8353;47.856;12.344;2023-01-29T15:45:32;5.50;99.90
16485;DHT22;8353;47.856;12.344;2023-01-29T15:48:05;5.40;99.90
16485;DHT22;8353;47.856;12.344;2023-01-29T15:50:40;5.30;99.90
16485;DHT22;8353;47.856;12.344;2023-01-29T15:53:15;5.40;99.90
16485;DHT22;8353;47.856;12.344;2023-01-29T15:55:47;5.40;99.90
16485;DHT22;8353;47.856;12.344;2023-01-29T15:58:27;5.40;99.90
16485;DHT22;8353;47.856;12.344;2023-01-29T16:01:00;5.20;99.90
16485;DHT22;8353;47.856;12.344;2023-01-29T16:03:33;5.20;99.90
16485;DHT22;8353;47.856;12.344;2023-01-29T16:06:06;5.10;99.90
16485;DHT22;8353;47.856;12.344;2023-01-29T16:08:37;5.10;99.90
16485;DHT22;8353;47.856;12.344;2023-01-29T16:11:09;5.10;99.90
16485;DHT22;8353;47.856;12.344;2023-01-29T16:13:40;5.20;99.90
16485;DHT22;8353;47.856;12.344;2023-01-29T16:16:22;5.10;99.90
16485;DHT22;8353;47.856;12.344;2023-01-29T16:18:54;5.10;99.90
16485;DHT22;8353;47.856;12.344;2023-01-29T16:21:28;5.00;99.90
16485;DHT22;8353;47.856;12.344;2023-01-29T16:24:01;5.00;99.90
16485;DHT22;8353;47.856;12.344;2023-01-29T16:26:34;5.00;99.90
16485;DHT22;8353;47.856;12.344;2023-01-29T16:29:08;5.00;99.90
16485;DHT22;8353;47.856;12.344;2023-01-29T16:31:41;4.90;99.90
16485;DHT22;8353;47.856;12.344;2023-01-29T16:34:17;4.90;99.90
16485;DHT22;8353;47.856;12.344;2023-01-29T16:36:49;4.90;99.90
16485;DHT22;8353;47.856;12.344;2023-01-29T16:39:22;4.90;99.90
16485;DHT22;8353;47.856;12.344;2023-01-29T16:42:19;4.70;99.90
16485;DHT22;8353;47.856;12.344;2023-01-29T16:44:53;4.70;99.90